createdAt,value
2018-04-25T00:01:26.202Z,8.23
2018-04-25T00:03:39.407Z,9.30
2018-04-25T00:05:47.754Z,7.70
2018-04-25T00:08:02.842Z,7.60
2018-04-25T00:10:11.438Z,8.17
2018-04-25T00:12:15.563Z,7.87
2018-04-25T00:14:26.514Z,7.70
2018-04-25T00:16:32.656Z,7.17
2018-04-25T00:18:43.499Z,6.90
2018-04-25T00:20:47.622Z,6.50
2018-04-25T00:22:58.421Z,6.40
2018-04-25T00:25:02.598Z,6.20
2018-04-25T00:27:11.108Z,6.60
2018-04-25T00:29:21.644Z,5.50
2018-04-25T00:31:41.235Z,5.17
2018-04-25T00:33:47.284Z,5.17
2018-04-25T00:36:02.039Z,5.63
2018-04-25T00:38:13.043Z,5.40
2018-04-25T00:40:30.825Z,5.80
2018-04-25T00:42:39.575Z,5.10
2018-04-25T00:44:47.797Z,5.03
2018-04-25T00:47:00.638Z,4.73
2018-04-25T00:49:07.086Z,6.00
2018-04-25T00:51:15.348Z,5.23
2018-04-25T00:53:34.668Z,4.70
2018-04-25T00:55:45.296Z,5.10
2018-04-25T00:57:58.410Z,5.20
2018-04-25T01:00:09.226Z,4.53
2018-04-25T01:02:15.660Z,5.00
2018-04-25T01:04:30.779Z,4.80
2018-04-25T01:06:41.320Z,4.60
2018-04-25T01:08:51.962Z,5.47
2018-04-25T01:11:00.402Z,5.00
2018-04-25T01:13:11.203Z,4.80
2018-04-25T01:15:26.354Z,4.53
2018-04-25T01:17:34.721Z,5.20
2018-04-25T01:19:47.677Z,5.07
2018-04-25T01:21:51.749Z,5.43
2018-04-25T01:24:00.131Z,5.03
2018-04-25T01:26:06.497Z,5.53
2018-04-25T01:28:25.443Z,5.97
2018-04-25T01:30:51.961Z,5.30
2018-04-25T01:32:58.186Z,6.57
2018-04-25T01:35:13.467Z,6.97
2018-04-25T01:37:22.560Z,6.03
2018-04-25T01:39:35.823Z,6.70
2018-04-25T01:41:40.883Z,6.30
2018-04-25T01:43:53.917Z,6.27
2018-04-25T01:45:59.900Z,7.03
2018-04-25T01:48:22.115Z,7.20
2018-04-25T01:50:31.743Z,7.17
2018-04-25T01:52:46.554Z,9.00
2018-04-25T01:55:03.366Z,8.10
2018-04-25T01:57:13.295Z,8.10
2018-04-25T01:59:23.217Z,9.10
2018-04-25T02:01:39.787Z,8.50
2018-04-25T02:03:54.861Z,8.50
2018-04-25T02:06:12.090Z,9.00
2018-04-25T02:08:16.160Z,9.10
2018-04-25T02:10:26.871Z,8.97
2018-04-25T02:12:35.647Z,9.23
2018-04-25T02:14:48.808Z,8.50
2018-04-25T02:17:01.443Z,8.53
2018-04-25T02:19:14.515Z,8.97
2018-04-25T02:21:29.667Z,9.30
2018-04-25T02:23:38.068Z,9.17
2018-04-25T02:25:46.615Z,8.80
2018-04-25T02:27:59.755Z,9.23
2018-04-25T02:30:14.924Z,9.30
2018-04-25T02:32:25.478Z,8.97
2018-04-25T02:34:29.635Z,8.90
2018-04-25T02:36:35.606Z,8.73
2018-04-25T02:38:50.812Z,9.50
2018-04-25T02:41:03.595Z,8.67
2018-04-25T02:43:18.710Z,9.37
2018-04-25T02:45:26.969Z,8.27
2018-04-25T02:47:40.183Z,8.70
2018-04-25T02:49:51.027Z,10.13
2018-04-25T02:51:57.405Z,9.07
2018-04-25T02:54:03.611Z,9.13
2018-04-25T02:56:07.758Z,8.80
2018-04-25T02:58:13.787Z,8.30
2018-04-25T03:00:20.183Z,8.30
2018-04-25T03:02:30.668Z,8.87
2018-04-25T03:04:36.709Z,8.27
2018-04-25T03:06:49.481Z,7.87
2018-04-25T03:08:58.207Z,7.83
2018-04-25T03:11:04.557Z,7.40
2018-04-25T03:13:10.943Z,7.13
2018-04-25T03:15:17.365Z,8.00
2018-04-25T03:17:32.262Z,6.90
2018-04-25T03:19:38.568Z,7.37
2018-04-25T03:21:56.138Z,7.00
2018-04-25T03:24:11.090Z,7.47
2018-04-25T03:26:23.893Z,7.03
2018-04-25T03:28:37.570Z,7.30
2018-04-25T03:30:46.166Z,7.90
2018-04-25T03:32:50.329Z,8.60
2018-04-25T03:34:54.399Z,7.70
2018-04-25T03:37:00.700Z,6.77
2018-04-25T03:39:17.971Z,5.00
2018-04-25T03:41:28.184Z,5.53
2018-04-25T03:43:39.107Z,4.70
2018-04-25T03:45:47.542Z,4.60
2018-04-25T03:47:58.090Z,4.20
2018-04-25T03:50:02.265Z,4.60
2018-04-25T03:52:17.315Z,4.80
2018-04-25T03:54:30.564Z,4.60
2018-04-25T03:56:45.510Z,5.13
2018-04-25T03:58:59.305Z,4.87
2018-04-25T04:01:12.336Z,5.27
2018-04-25T04:03:20.646Z,4.90
2018-04-25T04:05:29.260Z,5.47
2018-04-25T04:07:35.644Z,5.50
2018-04-25T04:09:44.247Z,4.83
2018-04-25T04:11:52.790Z,4.90
2018-04-25T04:14:03.534Z,4.33
2018-04-25T04:16:16.551Z,4.33
2018-04-25T04:18:31.775Z,3.63
2018-04-25T04:20:44.641Z,3.40
2018-04-25T04:22:52.923Z,3.07
2018-04-25T04:25:03.664Z,3.00
2018-04-25T04:27:10.036Z,2.67
2018-04-25T04:29:20.907Z,2.50
2018-04-25T04:31:29.279Z,2.60
2018-04-25T04:33:37.708Z,2.50
2018-04-25T04:35:48.590Z,2.53
2018-04-25T04:38:01.407Z,2.37
2018-04-25T04:40:11.875Z,2.67
2018-04-25T04:42:26.947Z,2.20
2018-04-25T04:44:37.532Z,2.20
2018-04-25T04:46:45.846Z,1.80
2018-04-25T04:48:52.227Z,1.90
2018-04-25T04:50:56.372Z,1.90
2018-04-25T04:53:04.697Z,2.10
2018-04-25T04:55:15.400Z,2.30
2018-04-25T04:57:28.235Z,2.30
2018-04-25T04:59:49.936Z,2.50
2018-04-25T05:01:53.991Z,2.77
2018-04-25T05:04:04.475Z,2.63
2018-04-25T05:06:14.991Z,2.70
2018-04-25T05:08:26.020Z,3.03
2018-04-25T05:10:36.431Z,2.90
2018-04-25T05:12:42.551Z,2.73
2018-04-25T05:15:04.264Z,2.67
2018-04-25T05:17:19.520Z,2.87
2018-04-25T05:19:38.745Z,2.70
2018-04-25T05:21:54.959Z,2.93
2018-04-25T05:24:03.678Z,2.70
2018-04-25T05:26:12.203Z,2.77
2018-04-25T05:28:22.756Z,3.13
2018-04-25T05:30:33.548Z,3.00
2018-04-25T05:32:39.622Z,3.20
2018-04-25T05:34:43.647Z,3.27
2018-04-25T05:36:52.237Z,3.60
2018-04-25T05:39:04.766Z,3.70
2018-04-25T05:41:15.280Z,3.40
2018-04-25T05:43:21.705Z,3.97
2018-04-25T05:45:32.652Z,3.03
2018-04-25T05:47:39.039Z,3.37
2018-04-25T05:49:47.148Z,3.37
2018-04-25T05:51:57.641Z,2.37
2018-04-25T05:54:03.967Z,2.90
2018-04-25T05:56:08.105Z,3.00
2018-04-25T05:58:12.237Z,3.50
2018-04-25T06:00:29.130Z,3.57
2018-04-25T06:02:37.296Z,3.23
2018-04-25T06:04:50.003Z,3.40
2018-04-25T06:07:03.129Z,3.07
2018-04-25T06:09:11.530Z,3.07
2018-04-25T06:11:20.153Z,2.90
2018-04-25T06:13:30.904Z,3.10
2018-04-25T06:15:46.098Z,2.80
2018-04-25T06:17:54.595Z,2.60
2018-04-25T06:20:00.956Z,2.93
2018-04-25T06:22:07.544Z,3.00
2018-04-25T06:24:14.157Z,3.00
2018-04-25T06:26:29.120Z,3.53
2018-04-25T06:28:38.075Z,3.73
2018-04-25T06:30:53.231Z,3.87
2018-04-25T06:32:59.639Z,3.50
2018-04-25T06:35:10.143Z,3.83
2018-04-25T06:37:21.130Z,4.37
2018-04-25T06:39:33.944Z,5.27
2018-04-25T06:41:40.314Z,5.50
2018-04-25T06:43:46.796Z,5.20
2018-04-25T06:45:53.261Z,5.57
2018-04-25T06:48:03.827Z,5.27
2018-04-25T06:50:19.217Z,5.40
2018-04-25T06:52:32.109Z,5.30
2018-04-25T06:54:45.211Z,5.60
2018-04-25T06:56:51.460Z,5.80
2018-04-25T06:58:59.902Z,5.60
2018-04-25T07:01:06.289Z,5.53
2018-04-25T07:03:12.696Z,5.50
2018-04-25T07:05:23.575Z,6.40
2018-04-25T07:07:28.719Z,6.20
2018-04-25T07:09:39.165Z,6.20
2018-04-25T07:11:49.824Z,6.33
2018-04-25T07:14:02.586Z,6.20
2018-04-25T07:16:10.703Z,7.60
2018-04-25T07:18:21.255Z,8.00
2018-04-25T07:20:36.572Z,7.90
2018-04-25T07:22:40.723Z,7.63
2018-04-25T07:24:47.289Z,7.70
2018-04-25T07:26:51.307Z,7.77
2018-04-25T07:29:02.182Z,8.03
2018-04-25T07:31:12.648Z,8.67
2018-04-25T07:33:23.439Z,6.70
2018-04-25T07:35:31.977Z,7.87
2018-04-25T07:37:40.338Z,9.50
2018-04-25T07:40:04.161Z,8.43
2018-04-25T07:42:21.250Z,8.47
2018-04-25T07:44:38.502Z,7.77
2018-04-25T07:46:42.633Z,8.37
2018-04-25T07:48:48.605Z,8.13
2018-04-25T07:51:01.715Z,9.20
2018-04-25T07:53:09.880Z,8.43
2018-04-25T07:55:26.831Z,10.40
2018-04-25T07:57:33.222Z,10.10
2018-04-25T07:59:37.269Z,6.57
2018-04-25T08:01:45.497Z,8.10
2018-04-25T08:03:54.119Z,8.40
2018-04-25T08:06:00.446Z,9.50
2018-04-25T08:08:11.321Z,9.00
2018-04-25T08:10:17.883Z,9.33
2018-04-25T08:12:38.622Z,9.80
2018-04-25T08:14:53.242Z,10.13
2018-04-25T08:17:09.482Z,9.20
2018-04-25T08:19:26.288Z,7.80
2018-04-25T08:21:43.400Z,7.83
2018-04-25T08:24:01.206Z,6.90
2018-04-25T08:26:16.382Z,6.87
2018-04-25T08:28:22.434Z,7.47
2018-04-25T08:30:37.499Z,7.07
2018-04-25T08:32:50.145Z,6.50
2018-04-25T08:34:54.219Z,6.90
2018-04-25T08:36:58.297Z,5.23
2018-04-25T08:39:02.317Z,4.07
2018-04-25T08:41:07.326Z,4.00
2018-04-25T08:43:11.356Z,3.97
2018-04-25T08:45:16.250Z,3.43
2018-04-25T08:47:22.497Z,3.70
2018-04-25T08:49:35.482Z,4.00
2018-04-25T08:51:44.074Z,3.70
2018-04-25T08:53:54.967Z,4.00
2018-04-25T08:56:01.349Z,3.87
2018-04-25T08:58:10.010Z,4.23
2018-04-25T09:00:16.402Z,3.90
2018-04-25T09:02:20.520Z,4.27
2018-04-25T09:04:28.914Z,4.00
2018-04-25T09:06:32.965Z,3.77
2018-04-25T09:08:43.313Z,4.43
2018-04-25T09:10:51.927Z,3.70
2018-04-25T09:12:58.320Z,4.27
2018-04-25T09:15:04.607Z,4.30
2018-04-25T09:17:10.899Z,4.53
2018-04-25T09:19:17.138Z,4.60
2018-04-25T09:21:25.684Z,4.60
2018-04-25T09:23:29.702Z,5.10
2018-04-25T09:25:33.718Z,5.10
2018-04-25T09:27:37.742Z,4.53
2018-04-25T09:29:41.786Z,4.03
2018-04-25T09:31:45.797Z,4.60
2018-04-25T09:33:49.829Z,4.93
2018-04-25T09:35:53.902Z,4.40
2018-04-25T09:37:57.889Z,4.70
2018-04-25T09:40:01.923Z,4.60
2018-04-25T09:42:05.954Z,4.80
2018-04-25T09:44:10.010Z,4.37
2018-04-25T09:46:14.055Z,5.93
2018-04-25T09:48:18.094Z,5.63
2018-04-25T09:50:26.668Z,5.20
2018-04-25T09:52:30.781Z,5.73
2018-04-25T09:54:34.815Z,5.37
2018-04-25T09:56:38.846Z,5.00
2018-04-25T09:58:42.866Z,5.43
2018-04-25T10:00:52.612Z,5.27
2018-04-25T10:02:56.648Z,5.57
2018-04-25T10:05:00.649Z,5.80
2018-04-25T10:07:04.689Z,6.10
2018-04-25T10:09:08.734Z,5.80
2018-04-25T10:11:17.405Z,4.73
2018-04-25T10:13:28.119Z,5.00
2018-04-25T10:15:38.760Z,5.83
2018-04-25T10:17:42.792Z,5.80
2018-04-25T10:19:46.823Z,5.03
2018-04-25T10:21:50.826Z,6.30
2018-04-25T10:23:57.153Z,6.23
2018-04-25T10:26:01.270Z,6.73
2018-04-25T10:28:05.347Z,6.27
2018-04-25T10:30:09.476Z,6.23
2018-04-25T10:32:17.897Z,6.33
2018-04-25T10:34:26.457Z,6.77
2018-04-25T10:36:30.479Z,7.00
2018-04-25T10:38:34.516Z,7.17
2018-04-25T10:40:38.535Z,7.13
2018-04-25T10:42:42.576Z,8.47
2018-04-25T10:44:46.601Z,7.20
2018-04-25T10:46:50.628Z,8.87
2018-04-25T10:48:54.653Z,8.23
2018-04-25T10:50:58.743Z,8.10
2018-04-25T10:53:02.779Z,7.67
2018-04-25T10:55:06.813Z,7.10
2018-04-25T10:57:11.153Z,8.00
2018-04-25T10:59:15.186Z,7.93
2018-04-25T11:01:19.237Z,8.70
2018-04-25T11:03:23.244Z,7.80
2018-04-25T11:05:27.246Z,8.87
2018-04-25T11:07:31.315Z,7.20
2018-04-25T11:09:35.328Z,7.77
2018-04-25T11:11:39.360Z,7.13
2018-04-25T11:13:43.378Z,7.80
2018-04-25T11:15:47.395Z,8.23
2018-04-25T11:17:51.623Z,8.23
2018-04-25T11:19:55.623Z,8.00
2018-04-25T11:21:59.667Z,7.80
2018-04-25T11:24:03.672Z,6.53
2018-04-25T11:26:07.715Z,7.77
2018-04-25T11:28:11.767Z,6.87
2018-04-25T11:30:15.775Z,6.87
2018-04-25T11:32:19.791Z,6.70
2018-04-25T11:34:23.838Z,7.40
2018-04-25T11:36:27.826Z,7.50
2018-04-25T11:38:31.896Z,7.20
2018-04-25T11:40:35.924Z,7.30
2018-04-25T11:42:39.940Z,6.43
2018-04-25T11:44:44.006Z,6.40
2018-04-25T11:46:47.994Z,5.87
2018-04-25T11:48:52.061Z,5.53
2018-04-25T11:50:56.106Z,5.93
2018-04-25T11:53:00.150Z,6.33
2018-04-25T11:55:04.169Z,6.70
2018-04-25T11:57:08.174Z,7.20
2018-04-25T11:59:12.222Z,6.50
2018-04-25T12:01:16.224Z,7.33
2018-04-25T12:03:20.230Z,5.73
2018-04-25T12:05:24.298Z,5.80
2018-04-25T12:07:28.300Z,6.37
2018-04-25T12:09:32.357Z,5.90
2018-04-25T12:11:36.390Z,6.27
2018-04-25T12:13:40.392Z,5.97
2018-04-25T12:15:44.417Z,6.10
2018-04-25T12:17:48.438Z,5.90
2018-04-25T12:19:52.490Z,5.20
2018-04-25T12:21:56.550Z,4.70
2018-04-25T12:24:00.530Z,4.60
2018-04-25T12:26:04.568Z,4.83
2018-04-25T12:28:08.598Z,4.60
2018-04-25T12:30:12.630Z,4.20
2018-04-25T12:32:16.673Z,4.60
2018-04-25T12:34:20.705Z,3.50
2018-04-25T12:36:24.718Z,3.53
2018-04-25T12:38:28.755Z,3.73
2018-04-25T12:40:35.627Z,4.07
2018-04-25T12:42:39.687Z,3.43
2018-04-25T12:44:43.718Z,3.63
2018-04-25T12:46:47.946Z,3.60
2018-04-25T12:48:52.018Z,3.37
2018-04-25T12:50:56.026Z,3.30
2018-04-25T12:53:00.303Z,3.77
2018-04-25T12:55:05.206Z,3.40
2018-04-25T12:57:09.240Z,3.63
2018-04-25T12:59:13.267Z,4.10
2018-04-25T13:01:17.315Z,3.80
2018-04-25T13:03:21.317Z,3.70
2018-04-25T13:05:25.383Z,3.37
2018-04-25T13:07:29.578Z,4.23
2018-04-25T13:09:33.589Z,3.37
2018-04-25T13:11:37.671Z,3.53
2018-04-25T13:13:41.670Z,3.40
2018-04-25T13:15:45.680Z,3.60
2018-04-25T13:17:49.712Z,4.03
2018-04-25T13:19:54.884Z,4.20
2018-04-25T13:21:59.775Z,3.80
2018-04-25T13:24:03.948Z,3.80
2018-04-25T13:26:07.992Z,3.70
2018-04-25T13:28:12.852Z,4.13
2018-04-25T13:30:18.013Z,3.60
2018-04-25T13:32:22.506Z,4.03
2018-04-25T13:34:26.582Z,3.83
2018-04-25T13:36:30.588Z,4.10
2018-04-25T13:38:34.609Z,4.03
2018-04-25T13:40:38.644Z,4.13
2018-04-25T13:42:42.644Z,3.83
2018-04-25T13:44:46.669Z,4.03
2018-04-25T13:46:50.849Z,3.97
2018-04-25T13:48:54.837Z,3.80
2018-04-25T13:50:58.932Z,3.83
2018-04-25T13:53:03.071Z,3.47
2018-04-25T13:55:08.164Z,4.30
2018-04-25T13:57:12.220Z,4.20
2018-04-25T13:59:16.268Z,3.77
2018-04-25T14:01:20.347Z,4.03
2018-04-25T14:03:24.341Z,3.93
2018-04-25T14:05:28.525Z,3.93
2018-04-25T14:07:32.589Z,3.73
2018-04-25T14:09:37.755Z,4.50
2018-04-25T14:11:41.899Z,4.00
2018-04-25T14:13:45.941Z,4.07
2018-04-25T14:15:50.022Z,4.60
2018-04-25T14:17:54.092Z,4.17
2018-04-25T14:19:58.228Z,4.07
2018-04-25T14:22:02.892Z,4.70
2018-04-25T14:24:07.006Z,4.43
2018-04-25T14:26:11.017Z,4.57
2018-04-25T14:28:15.276Z,4.37
2018-04-25T14:30:19.986Z,4.03
2018-04-25T14:32:24.136Z,4.23
2018-04-25T14:34:28.195Z,4.10
2018-04-25T14:36:32.218Z,4.90
2018-04-25T14:38:36.307Z,4.50
2018-04-25T14:40:40.793Z,4.80
2018-04-25T14:42:44.827Z,4.90
2018-04-25T14:44:49.582Z,4.70
2018-04-25T14:46:53.609Z,4.97
2018-04-25T14:48:57.634Z,4.80
2018-04-25T14:51:01.652Z,5.10
2018-04-25T14:53:05.666Z,5.13
2018-04-25T14:55:10.447Z,5.57
2018-04-25T14:57:14.496Z,6.00
2018-04-25T14:59:18.672Z,5.53
2018-04-25T15:01:22.775Z,6.13
2018-04-25T15:03:26.861Z,5.93
2018-04-25T15:05:30.903Z,6.03
2018-04-25T15:07:34.931Z,6.10
2018-04-25T15:09:38.982Z,5.43
2018-04-25T15:11:43.014Z,6.10
2018-04-25T15:13:51.745Z,5.60
2018-04-25T15:15:55.765Z,5.67
2018-04-25T15:18:00.025Z,5.47
2018-04-25T15:20:04.167Z,5.40
2018-04-25T15:22:08.308Z,5.67
2018-04-25T15:24:12.377Z,6.40
2018-04-25T15:26:16.586Z,6.33
2018-04-25T15:28:20.577Z,5.80
2018-04-25T15:30:24.683Z,6.57
2018-04-25T15:32:28.708Z,6.43
2018-04-25T15:34:32.712Z,6.10
2018-04-25T15:36:36.747Z,6.70
2018-04-25T15:38:40.806Z,6.63
2018-04-25T15:40:44.809Z,6.80
2018-04-25T15:42:48.845Z,6.13
2018-04-25T15:44:52.868Z,5.90
2018-04-25T15:46:56.941Z,5.73
2018-04-25T15:49:01.163Z,6.20
2018-04-25T15:51:05.205Z,6.00
2018-04-25T15:53:10.814Z,6.20
2018-04-25T15:55:14.827Z,5.97
2018-04-25T15:57:18.903Z,6.30
2018-04-25T15:59:22.928Z,5.80
2018-04-25T16:01:26.948Z,4.87
2018-04-25T16:03:30.978Z,5.30
2018-04-25T16:05:35.006Z,5.00
2018-04-25T16:07:39.169Z,5.30
2018-04-25T16:09:43.189Z,5.20
2018-04-25T16:11:47.240Z,4.93
2018-04-25T16:13:51.255Z,5.20
2018-04-25T16:15:55.333Z,6.07
2018-04-25T16:17:59.408Z,5.00
2018-04-25T16:20:03.465Z,5.43
2018-04-25T16:22:07.515Z,4.50
2018-04-25T16:24:11.623Z,5.67
2018-04-25T16:26:15.634Z,5.80
2018-04-25T16:28:19.649Z,5.47
2018-04-25T16:30:23.732Z,4.90
2018-04-25T16:32:27.760Z,4.70
2018-04-25T16:34:31.806Z,5.57
2018-04-25T16:36:35.870Z,4.80
2018-04-25T16:38:40.201Z,4.17
2018-04-25T16:40:44.277Z,5.10
2018-04-25T16:42:48.329Z,4.13
2018-04-25T16:44:52.852Z,4.40
2018-04-25T16:46:56.927Z,5.00
2018-04-25T16:49:00.992Z,4.47
2018-04-25T16:51:05.032Z,4.87
2018-04-25T16:53:09.081Z,4.20
2018-04-25T16:55:13.147Z,4.80
2018-04-25T16:57:17.216Z,4.13
2018-04-25T16:59:21.302Z,4.10
2018-04-25T17:01:25.347Z,4.40
2018-04-25T17:03:29.378Z,4.50
2018-04-25T17:05:33.389Z,4.43
2018-04-25T17:07:37.423Z,3.90
2018-04-25T17:09:41.435Z,4.10
2018-04-25T17:11:45.484Z,4.20
2018-04-25T17:13:49.528Z,4.10
2018-04-25T17:15:53.555Z,4.00
2018-04-25T17:17:59.837Z,3.80
2018-04-25T17:20:03.872Z,4.50
2018-04-25T17:22:07.900Z,4.00
2018-04-25T17:24:11.908Z,4.27
2018-04-25T17:26:15.971Z,4.00
2018-04-25T17:28:20.002Z,3.40
2018-04-25T17:30:24.026Z,3.77
2018-04-25T17:32:28.193Z,3.83
2018-04-25T17:34:37.192Z,4.00
2018-04-25T17:36:41.237Z,3.90
2018-04-25T17:38:45.272Z,3.87
2018-04-25T17:40:49.317Z,4.00
2018-04-25T17:42:53.390Z,4.10
2018-04-25T17:45:04.039Z,3.90
2018-04-25T17:47:08.221Z,3.80
2018-04-25T17:49:12.255Z,3.97
2018-04-25T17:51:16.353Z,3.50
2018-04-25T17:53:20.374Z,3.50
2018-04-25T17:55:24.394Z,3.70
2018-04-25T17:57:28.573Z,3.90
2018-04-25T17:59:32.590Z,3.63
2018-04-25T18:01:36.647Z,3.50
2018-04-25T18:03:41.768Z,4.40
2018-04-25T18:05:45.798Z,3.10
2018-04-25T18:07:49.910Z,4.67
2018-04-25T18:09:53.989Z,3.60
2018-04-25T18:12:00.247Z,3.40
2018-04-25T18:14:04.329Z,3.90
2018-04-25T18:16:08.357Z,4.03
2018-04-25T18:18:12.399Z,4.00
2018-04-25T18:20:16.519Z,3.33
2018-04-25T18:22:20.633Z,3.80
2018-04-25T18:24:24.690Z,4.10
2018-04-25T18:26:33.163Z,3.43
2018-04-25T18:28:43.812Z,3.23
2018-04-25T18:30:47.986Z,3.07
2018-04-25T18:32:58.702Z,3.93
2018-04-25T18:35:13.809Z,3.33
2018-04-25T18:37:24.785Z,4.10
2018-04-25T18:39:31.280Z,3.87
2018-04-25T18:41:40.053Z,3.90
2018-04-25T18:43:48.576Z,3.83
2018-04-25T18:45:52.606Z,4.87
2018-04-25T18:48:01.218Z,4.30
2018-04-25T18:50:09.589Z,4.67
2018-04-25T18:52:18.258Z,4.70
2018-04-25T18:54:31.011Z,3.67
2018-04-25T18:56:37.343Z,3.73
2018-04-25T18:58:41.415Z,4.20
2018-04-25T19:00:52.285Z,3.60
2018-04-25T19:03:00.899Z,3.53
2018-04-25T19:05:13.841Z,3.90
2018-04-25T19:07:22.139Z,3.70
2018-04-25T19:09:32.977Z,5.00
2018-04-25T19:11:41.539Z,3.97
2018-04-25T19:13:47.642Z,3.80
2018-04-25T19:16:02.599Z,4.30
2018-04-25T19:18:18.014Z,3.87
2018-04-25T19:20:33.145Z,3.63
2018-04-25T19:22:43.921Z,3.80
2018-04-25T19:24:50.433Z,3.70
2018-04-25T19:27:09.664Z,3.57
2018-04-25T19:29:16.019Z,3.50
2018-04-25T19:31:24.654Z,3.40
2018-04-25T19:33:48.264Z,3.87
2018-04-25T19:35:56.599Z,4.50
2018-04-25T19:38:17.627Z,4.10
2018-04-25T19:40:21.772Z,3.57
2018-04-25T19:42:37.955Z,4.53
2018-04-25T19:44:48.828Z,3.53
2018-04-25T19:46:59.686Z,4.10
2018-04-25T19:49:05.926Z,4.33
2018-04-25T19:51:27.501Z,4.57
2018-04-25T19:53:31.579Z,4.47
2018-04-25T19:55:48.878Z,4.10
2018-04-25T19:58:04.246Z,4.50
2018-04-25T20:00:10.595Z,3.90
2018-04-25T20:02:28.032Z,4.00
2018-04-25T20:04:38.784Z,3.77
2018-04-25T20:06:49.625Z,3.77
2018-04-25T20:09:17.617Z,4.20
2018-04-25T20:11:34.733Z,3.90
2018-04-25T20:13:41.220Z,4.63
2018-04-25T20:16:00.825Z,4.47
2018-04-25T20:18:15.768Z,4.70
2018-04-25T20:20:32.939Z,4.10
2018-04-25T20:22:43.343Z,4.23
2018-04-25T20:24:51.834Z,4.40
2018-04-25T20:27:02.755Z,4.40
2018-04-25T20:29:15.454Z,4.30
2018-04-25T20:31:30.781Z,4.40
2018-04-25T20:33:52.180Z,4.70
2018-04-25T20:36:00.452Z,3.90
2018-04-25T20:38:11.048Z,3.90
2018-04-25T20:40:17.449Z,4.30
2018-04-25T20:42:23.916Z,4.13
2018-04-25T20:44:28.038Z,4.60
2018-04-25T20:46:41.142Z,4.30
2018-04-25T20:48:45.306Z,4.67
2018-04-25T20:51:01.105Z,4.13
2018-04-25T20:53:11.779Z,4.20
2018-04-25T20:55:25.029Z,4.20
2018-04-25T20:57:37.994Z,3.80
2018-04-25T20:59:48.795Z,3.80
2018-04-25T21:01:52.965Z,3.90
2018-04-25T21:03:59.373Z,3.70
2018-04-25T21:06:05.555Z,3.03
2018-04-25T21:08:16.238Z,2.70
2018-04-25T21:10:24.780Z,2.60
2018-04-25T21:12:33.215Z,3.63
2018-04-25T21:14:46.039Z,2.57
2018-04-25T21:17:02.564Z,2.37
2018-04-25T21:19:09.029Z,2.50
2018-04-25T21:21:19.483Z,2.50
2018-04-25T21:23:23.773Z,2.87
2018-04-25T21:25:34.506Z,2.20
2018-04-25T21:27:47.680Z,2.10
2018-04-25T21:29:56.142Z,2.63
2018-04-25T21:32:04.682Z,3.10
2018-04-25T21:34:10.749Z,2.77
2018-04-25T21:36:21.137Z,2.30
2018-04-25T21:38:25.327Z,3.30
2018-04-25T21:40:40.376Z,2.43
2018-04-25T21:42:51.032Z,2.50
2018-04-25T21:45:06.329Z,1.83
2018-04-25T21:47:14.714Z,2.40
2018-04-25T21:49:21.154Z,2.63
2018-04-25T21:51:41.078Z,2.73
2018-04-25T21:53:49.317Z,2.00
2018-04-25T21:56:06.686Z,2.60
2018-04-25T21:58:13.079Z,2.33
2018-04-25T22:00:21.468Z,2.30
2018-04-25T22:02:38.632Z,2.17
2018-04-25T22:04:51.883Z,2.83
2018-04-25T22:07:02.375Z,2.80
2018-04-25T22:09:17.454Z,2.23
2018-04-25T22:11:23.656Z,2.47
2018-04-25T22:13:28.039Z,2.60
2018-04-25T22:15:40.550Z,2.20
2018-04-25T22:17:47.141Z,2.70
2018-04-25T22:19:57.982Z,2.00
2018-04-25T22:22:06.777Z,2.00
2018-04-25T22:24:20.308Z,3.90
2018-04-25T22:26:37.152Z,2.27
2018-04-25T22:28:45.666Z,2.27
2018-04-25T22:30:52.192Z,2.17
2018-04-25T22:33:09.542Z,2.20
2018-04-25T22:35:18.062Z,2.37
2018-04-25T22:37:28.818Z,2.10
2018-04-25T22:39:48.597Z,2.40
2018-04-25T22:41:54.966Z,2.43
2018-04-25T22:44:01.399Z,2.37
2018-04-25T22:46:33.393Z,2.23
2018-04-25T22:48:44.241Z,2.03
2018-04-25T22:50:48.499Z,1.50
2018-04-25T22:52:54.493Z,2.87
2018-04-25T22:55:07.629Z,1.90
2018-04-25T22:57:14.055Z,1.80
2018-04-25T22:59:29.070Z,2.23
2018-04-25T23:01:33.201Z,2.43
2018-04-25T23:03:44.021Z,2.10
2018-04-25T23:05:50.282Z,2.20
2018-04-25T23:08:13.074Z,2.27
2018-04-25T23:10:21.739Z,2.63
2018-04-25T23:12:32.187Z,2.93
2018-04-25T23:14:38.380Z,1.70
2018-04-25T23:16:48.891Z,2.50
2018-04-25T23:19:01.944Z,2.00
2018-04-25T23:21:12.839Z,1.83
2018-04-25T23:23:19.286Z,2.10
2018-04-25T23:25:23.387Z,2.13
2018-04-25T23:27:29.747Z,2.07
2018-04-25T23:29:38.149Z,2.23
2018-04-25T23:31:47.017Z,2.00
2018-04-25T23:33:55.458Z,2.10
2018-04-25T23:36:06.292Z,1.87
2018-04-25T23:38:16.934Z,2.30
2018-04-25T23:40:29.927Z,2.30
2018-04-25T23:42:34.054Z,2.00
2018-04-25T23:44:42.484Z,2.90
2018-04-25T23:46:53.353Z,2.47
2018-04-25T23:48:57.455Z,2.23
2018-04-25T23:51:01.517Z,2.47
2018-04-25T23:53:12.338Z,2.30
2018-04-25T23:55:25.439Z,4.30
2018-04-25T23:57:34.056Z,2.30
2018-04-25T23:59:56.112Z,2.90
